Time;durP1;ratioP1;P1;durP2;ratioP2;P2;SDS_P1;SDS_P2;PMS_P1;PMS_P2;Temp;Humidity;BMP_temperature;BMP_pressure;BME280_temperature;BME280_humidity;BME280_pressure;Samples;Min_cycle;Max_cycle;Signal;HPM_P1;HPM_P2
2023/08/15 00:02:09;;;;;;;4.13;3.72;;;;;;;;;;5077794;28;20427;-81
2023/08/15 00:04:36;;;;;;;5.13;4.53;;;;;;;;;;5078341;28;20075;-81
2023/08/15 00:07:04;;;;;;;4.72;3.78;;;;;;;;;;5075606;28;20052;-81
2023/08/15 00:09:32;;;;;;;6.90;4.60;;;;;;;;;;5075944;28;20052;-81
2023/08/15 00:11:59;;;;;;;10.55;5.13;;;;;;;;;;5077599;28;20059;-82
2023/08/15 00:14:27;;;;;;;4.90;4.40;;;;;;;;;;5075849;28;20045;-81
2023/08/15 00:16:54;;;;;;;9.40;5.10;;;;;;;;;;5077030;28;20076;-82
2023/08/15 00:19:21;;;;;;;6.78;4.65;;;;;;;;;;5074152;28;20070;-81
2023/08/15 00:21:48;;;;;;;6.60;4.50;;;;;;;;;;5075948;28;20041;-81
2023/08/15 00:24:16;;;;;;;8.23;4.35;;;;;;;;;;5076307;28;20090;-81
2023/08/15 00:26:43;;;;;;;7.45;4.57;;;;;;;;;;5074385;28;20101;-82
2023/08/15 00:29:10;;;;;;;7.45;4.20;;;;;;;;;;5074224;28;20056;-81
2023/08/15 00:31:37;;;;;;;7.20;4.60;;;;;;;;;;5074048;28;20106;-81
2023/08/15 00:34:04;;;;;;;7.07;4.47;;;;;;;;;;5075024;28;20585;-81
2023/08/15 00:36:32;;;;;;;8.50;5.32;;;;;;;;;;5073321;28;20048;-81
2023/08/15 00:39:02;;;;;;;5.18;4.68;;;;;;;;;;5073431;28;20170;-81
2023/08/15 00:41:30;;;;;;;5.25;4.75;;;;;;;;;;5073610;28;20049;-81
2023/08/15 00:43:58;;;;;;;6.72;4.40;;;;;;;;;;5079756;28;20087;-82
2023/08/15 00:46:27;;;;;;;6.07;4.35;;;;;;;;;;5079309;28;20110;-82
2023/08/15 00:48:55;;;;;;;6.05;4.00;;;;;;;;;;5077277;28;20063;-81
2023/08/15 00:51:23;;;;;;;6.53;4.78;;;;;;;;;;5077009;28;20048;-81
2023/08/15 00:53:50;;;;;;;5.13;4.63;;;;;;;;;;5078133;28;20070;-81
2023/08/15 00:56:18;;;;;;;7.15;4.75;;;;;;;;;;5077184;28;20102;-81
2023/08/15 00:58:45;;;;;;;7.80;5.10;;;;;;;;;;5076569;28;20044;-82
2023/08/15 01:01:16;;;;;;;9.00;4.40;;;;;;;;;;5076651;28;20052;-82
2023/08/15 01:03:45;;;;;;;6.70;4.15;;;;;;;;;;5076075;28;20048;-81
2023/08/15 01:06:14;;;;;;;10.23;4.82;;;;;;;;;;5075426;28;20136;-81
2023/08/15 01:08:41;;;;;;;7.78;4.78;;;;;;;;;;5079165;28;20060;-81
2023/08/15 01:11:08;;;;;;;5.22;4.72;;;;;;;;;;5076578;28;20048;-81
2023/08/15 01:13:40;;;;;;;7.32;5.18;;;;;;;;;;5078540;28;20056;-81
2023/08/15 01:16:12;;;;;;;5.78;4.97;;;;;;;;;;5076366;28;20106;-81
2023/08/15 01:18:43;;;;;;;13.00;5.55;;;;;;;;;;5077240;28;20048;-81
2023/08/15 01:21:13;;;;;;;5.13;4.72;;;;;;;;;;5078011;28;20040;-81
2023/08/15 01:23:44;;;;;;;9.88;4.72;;;;;;;;;;5076801;28;20081;-81
2023/08/15 01:26:11;;;;;;;10.43;5.40;;;;;;;;;;5077264;28;20044;-81
2023/08/15 01:28:39;;;;;;;13.52;5.90;;;;;;;;;;5076725;28;20513;-81
2023/08/15 01:31:09;;;;;;;9.90;5.88;;;;;;;;;;5075666;28;20146;-81
2023/08/15 01:33:57;;;;;;;6.47;5.90;;;;;;;;;;5075684;28;20477;-81
2023/08/15 01:36:29;;;;;;;6.93;5.35;;;;;;;;;;5044381;28;20192;-81
2023/08/15 01:38:59;;;;;;;9.60;6.03;;;;;;;;;;5076095;28;20067;-81
2023/08/15 01:41:28;;;;;;;5.38;4.97;;;;;;;;;;5074994;28;20105;-81
2023/08/15 01:43:55;;;;;;;7.45;5.45;;;;;;;;;;5075780;28;20491;-81
2023/08/15 01:46:22;;;;;;;6.25;5.63;;;;;;;;;;5074491;28;20395;-81
2023/08/15 01:48:50;;;;;;;7.80;6.15;;;;;;;;;;5074053;28;20132;-81
2023/08/15 01:51:17;;;;;;;6.13;5.55;;;;;;;;;;5075035;28;20056;-81
2023/08/15 01:53:44;;;;;;;27.63;7.45;;;;;;;;;;5073868;28;20114;-81
2023/08/15 01:56:12;;;;;;;11.05;6.15;;;;;;;;;;5073430;28;20041;-81
2023/08/15 01:58:39;;;;;;;15.90;6.60;;;;;;;;;;5073654;28;20124;-81
2023/08/15 02:01:07;;;;;;;6.40;5.75;;;;;;;;;;5073697;28;20048;-81
2023/08/15 02:03:34;;;;;;;10.15;6.03;;;;;;;;;;5075789;28;20127;-81
2023/08/15 02:06:03;;;;;;;6.63;5.22;;;;;;;;;;5075576;28;20399;-81
2023/08/15 02:08:30;;;;;;;9.48;5.78;;;;;;;;;;5075190;28;20164;-81
2023/08/15 02:10:57;;;;;;;15.55;6.15;;;;;;;;;;5082640;28;20052;-81
2023/08/15 02:13:30;;;;;;;6.68;5.80;;;;;;;;;;5084867;28;20490;-82
2023/08/15 02:15:57;;;;;;;8.73;5.85;;;;;;;;;;5081804;28;20044;-82
2023/08/15 02:18:27;;;;;;;8.50;5.93;;;;;;;;;;5080531;28;20122;-81
2023/08/15 02:20:54;;;;;;;11.25;6.88;;;;;;;;;;5081901;28;20055;-81
2023/08/15 02:23:22;;;;;;;10.10;7.15;;;;;;;;;;5079811;28;20052;-81
2023/08/15 02:25:49;;;;;;;8.55;5.57;;;;;;;;;;5080117;28;20419;-81
2023/08/15 02:28:16;;;;;;;7.05;6.07;;;;;;;;;;5077870;28;20060;-81
2023/08/15 02:30:43;;;;;;;9.40;6.70;;;;;;;;;;5079288;28;20049;-82
2023/08/15 02:33:11;;;;;;;7.05;6.35;;;;;;;;;;5087363;28;20069;-81
2023/08/15 02:35:42;;;;;;;11.95;6.10;;;;;;;;;;5084067;28;20193;-81
2023/08/15 02:38:09;;;;;;;7.05;6.38;;;;;;;;;;5079540;28;20499;-82
2023/08/15 02:40:37;;;;;;;6.40;5.88;;;;;;;;;;5079404;28;20094;-81
2023/08/15 02:43:04;;;;;;;7.80;5.75;;;;;;;;;;5080191;28;20052;-82
2023/08/15 02:45:31;;;;;;;11.65;6.72;;;;;;;;;;5077569;28;20074;-82
2023/08/15 02:47:59;;;;;;;6.78;6.07;;;;;;;;;;5075570;28;20118;-81
2023/08/15 02:50:27;;;;;;;6.78;6.28;;;;;;;;;;5076678;28;20131;-81
2023/08/15 02:52:54;;;;;;;11.52;7.15;;;;;;;;;;5074155;28;20414;-81
2023/08/15 02:55:21;;;;;;;6.43;5.90;;;;;;;;;;5076673;28;20127;-81
2023/08/15 02:57:49;;;;;;;9.57;7.13;;;;;;;;;;5074077;28;20044;-81
2023/08/15 03:00:16;;;;;;;11.10;7.00;;;;;;;;;;5076411;28;20489;-81
2023/08/15 03:02:43;;;;;;;11.82;6.80;;;;;;;;;;5075488;28;20048;-81
2023/08/15 03:05:11;;;;;;;8.73;6.80;;;;;;;;;;5077548;28;20064;-81
2023/08/15 03:07:38;;;;;;;8.57;6.28;;;;;;;;;;5077150;28;20515;-81
2023/08/15 03:10:05;;;;;;;10.15;6.15;;;;;;;;;;5076757;28;20074;-81
2023/08/15 03:12:33;;;;;;;9.70;6.90;;;;;;;;;;5075294;28;20130;-81
2023/08/15 03:15:00;;;;;;;11.20;7.00;;;;;;;;;;5078322;28;20045;-81
2023/08/15 03:17:27;;;;;;;12.30;7.25;;;;;;;;;;5078018;28;20070;-81
2023/08/15 03:19:55;;;;;;;13.05;7.22;;;;;;;;;;5076939;28;20040;-81
2023/08/15 03:22:22;;;;;;;7.78;7.07;;;;;;;;;;5076465;28;20106;-81
2023/08/15 03:24:49;;;;;;;7.88;7.18;;;;;;;;;;5076134;28;20495;-81
2023/08/15 03:27:16;;;;;;;11.73;7.30;;;;;;;;;;5077481;28;20125;-81
2023/08/15 03:29:44;;;;;;;13.30;7.40;;;;;;;;;;5075159;28;20062;-81
2023/08/15 03:32:11;;;;;;;7.20;6.50;;;;;;;;;;5075457;28;20048;-81
2023/08/15 03:34:38;;;;;;;10.10;7.43;;;;;;;;;;5076808;28;20050;-81
2023/08/15 03:37:05;;;;;;;9.98;7.38;;;;;;;;;;5076011;28;20070;-82
2023/08/15 03:39:33;;;;;;;8.95;7.00;;;;;;;;;;5075857;28;20423;-81
2023/08/15 03:42:00;;;;;;;11.25;7.80;;;;;;;;;;5075704;28;20056;-81
2023/08/15 03:44:27;;;;;;;8.48;7.45;;;;;;;;;;5074942;28;20510;-82
2023/08/15 03:46:54;;;;;;;11.23;8.30;;;;;;;;;;5075541;28;20068;-81
2023/08/15 03:49:22;;;;;;;8.60;7.63;;;;;;;;;;5076364;28;20048;-81
2023/08/15 03:51:49;;;;;;;13.55;8.20;;;;;;;;;;5073588;28;20056;-81
2023/08/15 03:54:16;;;;;;;15.32;8.57;;;;;;;;;;5076337;28;20048;-81
2023/08/15 03:56:43;;;;;;;12.23;8.65;;;;;;;;;;5079056;28;20045;-82
2023/08/15 03:59:11;;;;;;;12.63;8.55;;;;;;;;;;5077323;28;20098;-81
2023/08/15 04:01:38;;;;;;;11.27;8.60;;;;;;;;;;5077146;28;20446;-82
2023/08/15 04:04:05;;;;;;;11.60;8.32;;;;;;;;;;5077734;28;20104;-81
2023/08/15 04:06:33;;;;;;;12.07;8.10;;;;;;;;;;5075952;28;20189;-81
2023/08/15 04:09:00;;;;;;;11.10;8.52;;;;;;;;;;5075693;28;20082;-81
2023/08/15 04:11:27;;;;;;;14.55;8.75;;;;;;;;;;5075121;28;20049;-81
2023/08/15 04:13:55;;;;;;;11.68;7.80;;;;;;;;;;5074609;28;20048;-81
2023/08/15 04:16:22;;;;;;;11.77;9.27;;;;;;;;;;5076172;28;20498;-82
2023/08/15 04:18:49;;;;;;;12.82;9.52;;;;;;;;;;5073847;28;20426;-81
2023/08/15 04:21:16;;;;;;;14.43;8.35;;;;;;;;;;5074110;28;20045;-81
2023/08/15 04:23:43;;;;;;;12.32;8.30;;;;;;;;;;5073004;28;20099;-81
2023/08/15 04:26:11;;;;;;;14.15;9.15;;;;;;;;;;5074466;28;20048;-81
2023/08/15 04:28:38;;;;;;;10.02;9.00;;;;;;;;;;5072929;28;20064;-81
2023/08/15 04:31:05;;;;;;;13.82;9.20;;;;;;;;;;5074076;28;20045;-81
2023/08/15 04:33:32;;;;;;;14.38;9.23;;;;;;;;;;5072901;28;20051;-81
2023/08/15 04:36:00;;;;;;;13.27;10.05;;;;;;;;;;5073593;28;20040;-81
2023/08/15 04:38:27;;;;;;;11.93;8.95;;;;;;;;;;5073364;28;20041;-81
2023/08/15 04:40:54;;;;;;;14.32;9.20;;;;;;;;;;5074609;28;20051;-81
2023/08/15 04:43:25;;;;;;;18.98;9.32;;;;;;;;;;5076100;28;20052;-81
2023/08/15 04:45:52;;;;;;;15.73;10.45;;;;;;;;;;5076043;28;20121;-82
2023/08/15 04:48:19;;;;;;;10.45;8.98;;;;;;;;;;5076543;28;20426;-81
2023/08/15 04:50:46;;;;;;;16.85;10.10;;;;;;;;;;5076082;28;20048;-81
2023/08/15 04:53:14;;;;;;;11.10;9.93;;;;;;;;;;5077840;28;20052;-82
2023/08/15 04:55:41;;;;;;;12.30;10.15;;;;;;;;;;5075202;28;20048;-81
2023/08/15 04:58:09;;;;;;;10.20;9.18;;;;;;;;;;5075959;28;20049;-81
2023/08/15 05:00:37;;;;;;;14.80;11.32;;;;;;;;;;5076619;28;20040;-82
2023/08/15 05:03:04;;;;;;;11.82;10.15;;;;;;;;;;5075523;28;20045;-82
2023/08/15 05:05:32;;;;;;;14.35;11.95;;;;;;;;;;5077450;28;20040;-82
2023/08/15 05:07:59;;;;;;;14.63;12.52;;;;;;;;;;5077319;28;20052;-81
2023/08/15 05:10:26;;;;;;;14.02;10.77;;;;;;;;;;5075865;28;20044;-82
2023/08/15 05:12:56;;;;;;;18.92;10.77;;;;;;;;;;5076305;28;20102;-82
2023/08/15 05:15:23;;;;;;;9.85;8.43;;;;;;;;;;5077193;28;20422;-82
2023/08/15 05:17:51;;;;;;;12.30;7.97;;;;;;;;;;5076835;28;20418;-81
2023/08/15 05:20:18;;;;;;;7.75;7.05;;;;;;;;;;5076685;28;20513;-82
2023/08/15 05:22:45;;;;;;;12.68;6.43;;;;;;;;;;5079017;28;20075;-81
2023/08/15 05:25:13;;;;;;;8.48;6.85;;;;;;;;;;5090829;28;20045;-82
2023/08/15 05:27:40;;;;;;;9.23;5.35;;;;;;;;;;5092543;28;20227;-82
2023/08/15 05:30:07;;;;;;;9.10;4.97;;;;;;;;;;5083010;28;20049;-82
2023/08/15 05:32:35;;;;;;;7.55;4.95;;;;;;;;;;5081849;28;20049;-82
2023/08/15 05:35:02;;;;;;;5.65;5.13;;;;;;;;;;5083624;28;20053;-82
2023/08/15 05:37:29;;;;;;;5.85;4.30;;;;;;;;;;5084006;28;20074;-82
2023/08/15 05:39:57;;;;;;;6.82;4.03;;;;;;;;;;5083004;28;20049;-82
2023/08/15 05:42:24;;;;;;;5.47;4.50;;;;;;;;;;5082413;28;20068;-82
2023/08/15 05:44:51;;;;;;;4.97;4.05;;;;;;;;;;5081952;28;20086;-82
2023/08/15 05:47:20;;;;;;;9.40;4.93;;;;;;;;;;5081066;28;20048;-83
2023/08/15 05:49:48;;;;;;;12.25;4.95;;;;;;;;;;5081815;28;20185;-82
2023/08/15 05:52:15;;;;;;;14.23;5.72;;;;;;;;;;5082649;28;20052;-82
2023/08/15 05:54:42;;;;;;;18.63;5.32;;;;;;;;;;5080094;28;20052;-82
2023/08/15 05:57:10;;;;;;;11.25;5.50;;;;;;;;;;5078916;28;20048;-82
2023/08/15 05:59:37;;;;;;;9.75;4.60;;;;;;;;;;5074693;28;20466;-82
2023/08/15 06:02:04;;;;;;;8.80;4.82;;;;;;;;;;5074682;28;20048;-82
2023/08/15 06:04:31;;;;;;;7.32;4.13;;;;;;;;;;5074630;28;20461;-82
2023/08/15 06:06:59;;;;;;;6.85;3.85;;;;;;;;;;5075105;28;20094;-81
2023/08/15 06:09:27;;;;;;;4.78;4.15;;;;;;;;;;5073621;28;20083;-81
2023/08/15 06:11:54;;;;;;;7.15;4.00;;;;;;;;;;5073949;28;20102;-82
2023/08/15 06:14:21;;;;;;;4.97;4.40;;;;;;;;;;5074731;28;20048;-82
2023/08/15 06:16:49;;;;;;;4.22;3.90;;;;;;;;;;5074193;28;20057;-82
2023/08/15 06:19:16;;;;;;;4.97;4.50;;;;;;;;;;5074212;28;20091;-82
2023/08/15 06:21:43;;;;;;;6.93;4.28;;;;;;;;;;5073793;28;20044;-82
2023/08/15 06:24:11;;;;;;;5.35;4.03;;;;;;;;;;5075574;28;20131;-82
2023/08/15 06:26:39;;;;;;;4.88;4.10;;;;;;;;;;5073497;28;20098;-82
2023/08/15 06:29:06;;;;;;;5.38;4.03;;;;;;;;;;5074979;28;20058;-82
2023/08/15 06:31:35;;;;;;;7.68;4.55;;;;;;;;;;5075762;28;20044;-82
2023/08/15 06:34:03;;;;;;;5.60;4.40;;;;;;;;;;5076081;28;20465;-82
2023/08/15 06:36:31;;;;;;;9.68;4.45;;;;;;;;;;5076558;28;20049;-82
2023/08/15 06:38:59;;;;;;;4.78;4.28;;;;;;;;;;5075051;28;20136;-82
2023/08/15 06:41:26;;;;;;;5.35;4.15;;;;;;;;;;5075421;28;20466;-82
2023/08/15 06:43:53;;;;;;;7.00;4.30;;;;;;;;;;5074598;28;20052;-82
2023/08/15 06:46:21;;;;;;;5.80;4.00;;;;;;;;;;5075052;28;20487;-82
2023/08/15 06:48:48;;;;;;;5.60;4.00;;;;;;;;;;5074753;28;20202;-82
2023/08/15 06:51:15;;;;;;;8.00;4.82;;;;;;;;;;5075316;28;20097;-83
2023/08/15 06:53:46;;;;;;;5.82;4.00;;;;;;;;;;5074262;28;20056;-82
2023/08/15 06:56:13;;;;;;;6.97;4.43;;;;;;;;;;5074953;28;20052;-82
2023/08/15 06:58:41;;;;;;;10.82;4.70;;;;;;;;;;5073567;28;20097;-82
2023/08/15 07:01:08;;;;;;;10.13;4.75;;;;;;;;;;5074139;28;20045;-80
2023/08/15 07:03:36;;;;;;;9.15;4.50;;;;;;;;;;5076030;28;20530;-80
2023/08/15 07:06:04;;;;;;;8.38;4.10;;;;;;;;;;5076553;28;20495;-81
2023/08/15 07:08:31;;;;;;;7.40;4.25;;;;;;;;;;5076262;28;20052;-80
2023/08/15 07:10:59;;;;;;;6.10;4.18;;;;;;;;;;5082515;28;20075;-81
2023/08/15 07:13:27;;;;;;;10.43;4.25;;;;;;;;;;5081086;28;20048;-81
2023/08/15 07:15:57;;;;;;;3.80;3.60;;;;;;;;;;5079833;28;20060;-81
2023/08/15 07:18:25;;;;;;;4.63;4.20;;;;;;;;;;5078318;28;20075;-81
2023/08/15 07:20:52;;;;;;;5.90;4.22;;;;;;;;;;5078798;28;20063;-81
2023/08/15 07:23:20;;;;;;;7.78;4.00;;;;;;;;;;5079192;28;20082;-80
2023/08/15 07:25:48;;;;;;;5.72;4.65;;;;;;;;;;5077066;28;20045;-81
2023/08/15 07:28:15;;;;;;;10.13;4.57;;;;;;;;;;5076262;28;20140;-81
2023/08/15 07:30:45;;;;;;;6.20;4.07;;;;;;;;;;5077708;28;20068;-81
2023/08/15 07:33:16;;;;;;;13.13;4.72;;;;;;;;;;5074942;28;20048;-80
2023/08/15 07:35:43;;;;;;;7.68;4.80;;;;;;;;;;5071624;28;20053;-80
2023/08/15 07:38:10;;;;;;;6.55;4.88;;;;;;;;;;5072152;28;20056;-81
2023/08/15 07:40:38;;;;;;;9.77;5.50;;;;;;;;;;5071780;28;20048;-80
2023/08/15 07:43:05;;;;;;;8.65;5.20;;;;;;;;;;5073454;28;20462;-80
2023/08/15 07:45:32;;;;;;;13.20;5.50;;;;;;;;;;5072028;28;20056;-80
2023/08/15 07:47:59;;;;;;;10.00;5.05;;;;;;;;;;5072421;28;20117;-80
2023/08/15 07:50:28;;;;;;;6.38;4.53;;;;;;;;;;5074548;28;20051;-81
2023/08/15 07:52:58;;;;;;;7.22;5.03;;;;;;;;;;5071485;28;20048;-80
2023/08/15 07:55:27;;;;;;;6.07;4.40;;;;;;;;;;5071615;28;20048;-81
2023/08/15 07:57:57;;;;;;;6.75;4.28;;;;;;;;;;5072968;28;20479;-80
2023/08/15 08:00:25;;;;;;;12.45;4.43;;;;;;;;;;5072984;28;20461;-81
2023/08/15 08:02:52;;;;;;;9.65;4.63;;;;;;;;;;5071643;28;20049;-81
2023/08/15 08:05:20;;;;;;;5.75;4.50;;;;;;;;;;5071954;28;20057;-81
2023/08/15 08:07:49;;;;;;;4.25;3.80;;;;;;;;;;5071764;28;20056;-81
2023/08/15 08:10:17;;;;;;;7.47;3.92;;;;;;;;;;5072425;28;20132;-81
2023/08/15 08:12:45;;;;;;;5.45;4.10;;;;;;;;;;5078064;28;20517;-82
2023/08/15 08:15:13;;;;;;;7.20;4.80;;;;;;;;;;5083310;28;20056;-81
2023/08/15 08:17:41;;;;;;;5.03;4.53;;;;;;;;;;5082288;28;20529;-81
2023/08/15 08:20:17;;;;;;;7.75;4.57;;;;;;;;;;5088281;28;20097;-81
2023/08/15 08:22:45;;;;;;;6.15;4.63;;;;;;;;;;5090126;28;20044;-81
2023/08/15 08:25:16;;;;;;;7.43;4.88;;;;;;;;;;5085973;28;20051;-82
2023/08/15 08:27:44;;;;;;;6.05;5.40;;;;;;;;;;5082785;28;20052;-82
2023/08/15 08:30:12;;;;;;;7.45;5.03;;;;;;;;;;5082278;28;20052;-81
2023/08/15 08:32:40;;;;;;;9.05;4.72;;;;;;;;;;5081738;28;20059;-81
2023/08/15 08:35:07;;;;;;;7.88;4.97;;;;;;;;;;5081786;28;20059;-82
2023/08/15 08:37:35;;;;;;;5.80;4.70;;;;;;;;;;5082486;28;20087;-81
2023/08/15 08:40:04;;;;;;;7.40;4.32;;;;;;;;;;5081778;28;20051;-81
2023/08/15 08:42:31;;;;;;;7.10;4.30;;;;;;;;;;5080348;28;20400;-82
2023/08/15 08:45:00;;;;;;;4.72;4.20;;;;;;;;;;5080893;28;20040;-81
2023/08/15 08:47:28;;;;;;;7.07;4.57;;;;;;;;;;5080203;28;20151;-81
2023/08/15 08:49:59;;;;;;;4.15;3.78;;;;;;;;;;5083074;28;20131;-82
2023/08/15 08:52:27;;;;;;;4.68;4.18;;;;;;;;;;5081443;28;20049;-81
2023/08/15 08:54:54;;;;;;;6.93;4.20;;;;;;;;;;5080743;28;20495;-81
2023/08/15 08:57:29;;;;;;;6.57;4.05;;;;;;;;;;5079413;28;20426;-82
2023/08/15 08:59:57;;;;;;;7.18;3.97;;;;;;;;;;5080237;28;20051;-81
2023/08/15 09:02:24;;;;;;;4.05;3.75;;;;;;;;;;5079785;28;20044;-81
2023/08/15 09:04:54;;;;;;;6.88;3.33;;;;;;;;;;5080632;28;20060;-81
2023/08/15 09:07:22;;;;;;;4.03;3.42;;;;;;;;;;5080115;28;20051;-82
2023/08/15 09:09:49;;;;;;;5.72;3.63;;;;;;;;;;5079601;28;20040;-81
2023/08/15 09:12:36;;;;;;;3.75;3.45;;;;;;;;;;5075874;28;20045;-81
2023/08/15 09:15:07;;;;;;;9.40;3.75;;;;;;;;;;5078299;28;20472;-81
2023/08/15 09:17:34;;;;;;;4.47;3.28;;;;;;;;;;5076400;28;20055;-81
2023/08/15 09:20:12;;;;;;;6.20;3.40;;;;;;;;;;5074851;28;20048;-82
2023/08/15 09:22:40;;;;;;;4.22;3.42;;;;;;;;;;5074760;28;20045;-81
2023/08/15 09:25:08;;;;;;;4.07;3.00;;;;;;;;;;5074827;28;20453;-81
2023/08/15 09:27:35;;;;;;;6.03;3.08;;;;;;;;;;5072955;28;20103;-82
2023/08/15 09:30:07;;;;;;;4.65;2.92;;;;;;;;;;5075567;28;20049;-81
2023/08/15 09:32:34;;;;;;;7.95;2.67;;;;;;;;;;5074371;28;20048;-81
2023/08/15 09:35:03;;;;;;;5.07;3.08;;;;;;;;;;5074202;28;20123;-81
2023/08/15 09:37:30;;;;;;;4.22;2.60;;;;;;;;;;5075327;28;20470;-81
2023/08/15 09:39:58;;;;;;;3.67;2.28;;;;;;;;;;5074048;28;20503;-81
2023/08/15 09:42:25;;;;;;;3.33;2.50;;;;;;;;;;5074195;28;20469;-81
2023/08/15 09:44:53;;;;;;;4.82;2.53;;;;;;;;;;5073826;28;20049;-81
2023/08/15 09:47:20;;;;;;;4.43;2.33;;;;;;;;;;5073609;28;20044;-81
2023/08/15 09:49:52;;;;;;;2.38;2.00;;;;;;;;;;5073591;28;20549;-81
2023/08/15 09:52:19;;;;;;;2.47;2.30;;;;;;;;;;5074153;28;20056;-81
2023/08/15 09:54:47;;;;;;;6.75;2.78;;;;;;;;;;5075123;28;20048;-81
2023/08/15 09:57:14;;;;;;;4.53;2.92;;;;;;;;;;5073550;28;20048;-81
2023/08/15 09:59:42;;;;;;;5.57;3.03;;;;;;;;;;5073245;28;20144;-81
2023/08/15 10:02:13;;;;;;;7.10;3.10;;;;;;;;;;5073832;28;20078;-81
2023/08/15 10:04:40;;;;;;;2.65;2.45;;;;;;;;;;5073526;28;20048;-81
2023/08/15 10:07:07;;;;;;;4.22;2.50;;;;;;;;;;5074276;28;20055;-81
2023/08/15 10:09:35;;;;;;;2.67;2.47;;;;;;;;;;5072941;28;20101;-80
2023/08/15 10:12:02;;;;;;;4.30;2.55;;;;;;;;;;5073040;28;20044;-81
2023/08/15 10:14:30;;;;;;;7.88;2.95;;;;;;;;;;5073410;28;20467;-81
2023/08/15 10:16:57;;;;;;;7.45;2.65;;;;;;;;;;5073121;28;20048;-80
2023/08/15 10:19:28;;;;;;;3.00;2.25;;;;;;;;;;5073271;28;20422;-80
2023/08/15 10:21:56;;;;;;;3.92;2.90;;;;;;;;;;5076126;28;20114;-80
2023/08/15 10:24:23;;;;;;;4.10;2.47;;;;;;;;;;5074410;28;20094;-81
2023/08/15 10:26:53;;;;;;;3.97;2.78;;;;;;;;;;5076354;28;20580;-81
2023/08/15 10:29:20;;;;;;;4.68;2.70;;;;;;;;;;5081848;28;20052;-82
2023/08/15 10:31:59;;;;;;;4.45;2.50;;;;;;;;;;5082582;28;20127;-81
2023/08/15 10:34:32;;;;;;;2.45;2.13;;;;;;;;;;5080679;28;20082;-81
2023/08/15 10:37:18;;;;;;;3.65;2.17;;;;;;;;;;5080711;28;20056;-81
2023/08/15 10:39:46;;;;;;;3.47;2.30;;;;;;;;;;5078457;28;20083;-81
2023/08/15 10:42:13;;;;;;;2.97;2.17;;;;;;;;;;5080559;28;20110;-81
2023/08/15 10:44:40;;;;;;;4.85;2.55;;;;;;;;;;5078577;28;20045;-81
2023/08/15 10:47:22;;;;;;;9.15;2.47;;;;;;;;;;5076401;28;20437;-81
2023/08/15 10:49:53;;;;;;;2.50;2.23;;;;;;;;;;5072235;28;20136;-81
2023/08/15 10:52:20;;;;;;;2.55;2.35;;;;;;;;;;5072465;28;20098;-81
2023/08/15 10:54:48;;;;;;;2.90;2.28;;;;;;;;;;5072392;28;20525;-80
2023/08/15 10:57:15;;;;;;;3.28;2.75;;;;;;;;;;5073272;28;20139;-81
2023/08/15 10:59:42;;;;;;;5.15;2.50;;;;;;;;;;5073277;28;20473;-81
2023/08/15 11:02:10;;;;;;;5.97;2.65;;;;;;;;;;5073386;28;20045;-81
2023/08/15 11:04:37;;;;;;;5.72;2.67;;;;;;;;;;5072010;28;20058;-80
2023/08/15 11:07:06;;;;;;;5.15;2.92;;;;;;;;;;5073223;28;20451;-81
2023/08/15 11:09:33;;;;;;;2.70;2.50;;;;;;;;;;5073123;28;20102;-80
2023/08/15 11:12:08;;;;;;;10.15;2.78;;;;;;;;;;5071773;28;20052;-81
2023/08/15 11:14:35;;;;;;;9.07;2.92;;;;;;;;;;5081162;28;20400;-81
2023/08/15 11:17:02;;;;;;;3.22;2.22;;;;;;;;;;5080094;28;20052;-81
2023/08/15 11:19:29;;;;;;;4.97;2.60;;;;;;;;;;5086254;28;20502;-81
2023/08/15 11:21:57;;;;;;;2.33;2.10;;;;;;;;;;5080467;28;20044;-80
2023/08/15 11:24:24;;;;;;;4.43;1.95;;;;;;;;;;5079425;28;20040;-80
2023/08/15 11:26:53;;;;;;;2.25;2.15;;;;;;;;;;5077205;28;20047;-81
2023/08/15 11:29:20;;;;;;;3.53;2.35;;;;;;;;;;5077930;28;20052;-81
2023/08/15 11:31:48;;;;;;;6.40;2.70;;;;;;;;;;5079488;28;20106;-81
2023/08/15 11:34:15;;;;;;;3.72;2.22;;;;;;;;;;5076787;28;20052;-81
2023/08/15 11:36:45;;;;;;;4.18;2.22;;;;;;;;;;5078197;28;20503;-80
2023/08/15 11:39:13;;;;;;;3.25;2.88;;;;;;;;;;5079278;28;20052;-81
2023/08/15 11:41:41;;;;;;;6.55;2.88;;;;;;;;;;5074829;28;20051;-81
2023/08/15 11:44:08;;;;;;;3.30;2.85;;;;;;;;;;5076361;28;20093;-80
2023/08/15 11:46:42;;;;;;;5.93;3.05;;;;;;;;;;5074546;28;20049;-80
2023/08/15 11:49:18;;;;;;;3.78;2.95;;;;;;;;;;5076292;28;20102;-81
2023/08/15 11:51:45;;;;;;;3.45;3.15;;;;;;;;;;5077960;28;20060;-81
2023/08/15 11:54:13;;;;;;;3.38;2.85;;;;;;;;;;5076897;28;20063;-80
2023/08/15 11:56:50;;;;;;;3.30;3.00;;;;;;;;;;5077547;28;20048;-81
2023/08/15 11:59:20;;;;;;;4.88;2.90;;;;;;;;;;5076737;28;20048;-81
2023/08/15 12:01:48;;;;;;;4.97;2.95;;;;;;;;;;5079299;28;20066;-80
2023/08/15 12:04:17;;;;;;;5.57;3.17;;;;;;;;;;5077967;28;20044;-81
2023/08/15 12:06:44;;;;;;;3.92;3.15;;;;;;;;;;5078401;28;20049;-81
2023/08/15 12:09:12;;;;;;;3.50;2.83;;;;;;;;;;5080799;28;20082;-81
2023/08/15 12:11:39;;;;;;;7.35;3.22;;;;;;;;;;5078049;28;20105;-81
2023/08/15 12:14:17;;;;;;;12.43;4.13;;;;;;;;;;5078622;28;20105;-80
2023/08/15 12:16:44;;;;;;;5.55;2.95;;;;;;;;;;5078693;28;20074;-81
2023/08/15 12:19:12;;;;;;;6.00;3.13;;;;;;;;;;5078327;28;20101;-82
2023/08/15 12:21:39;;;;;;;3.05;2.83;;;;;;;;;;5078949;28;20411;-80
2023/08/15 12:24:06;;;;;;;2.78;2.55;;;;;;;;;;5079874;28;20117;-82
2023/08/15 12:26:33;;;;;;;4.72;2.80;;;;;;;;;;5076246;28;20078;-80
2023/08/15 12:29:00;;;;;;;5.47;2.33;;;;;;;;;;5072226;28;20102;-81
2023/08/15 12:31:28;;;;;;;3.08;2.50;;;;;;;;;;5071135;28;20048;-80
2023/08/15 12:33:55;;;;;;;3.70;2.15;;;;;;;;;;5072300;28;20048;-81
2023/08/15 12:36:22;;;;;;;4.18;2.50;;;;;;;;;;5073156;28;20111;-80
2023/08/15 12:38:49;;;;;;;8.35;2.53;;;;;;;;;;5071612;28;20044;-80
2023/08/15 12:41:17;;;;;;;6.38;2.20;;;;;;;;;;5071808;28;20055;-80
2023/08/15 12:43:44;;;;;;;5.32;2.53;;;;;;;;;;5072058;28;20040;-81
2023/08/15 12:46:11;;;;;;;2.50;2.30;;;;;;;;;;5071935;28;20494;-79
2023/08/15 12:48:39;;;;;;;4.43;2.20;;;;;;;;;;5072295;28;20098;-80
2023/08/15 12:51:06;;;;;;;2.28;2.00;;;;;;;;;;5072609;28;20518;-82
2023/08/15 12:53:34;;;;;;;2.65;2.15;;;;;;;;;;5075261;28;20056;-80
2023/08/15 12:56:01;;;;;;;3.40;2.20;;;;;;;;;;5073659;28;20045;-80
2023/08/15 12:58:28;;;;;;;2.58;2.33;;;;;;;;;;5075844;28;20048;-81
2023/08/15 13:00:56;;;;;;;4.25;2.15;;;;;;;;;;5076236;28;20135;-80
2023/08/15 13:03:23;;;;;;;3.28;2.20;;;;;;;;;;5078126;28;20063;-81
2023/08/15 13:05:51;;;;;;;4.25;2.38;;;;;;;;;;5079742;28;20055;-80
2023/08/15 13:08:20;;;;;;;6.55;2.28;;;;;;;;;;5078242;28;20041;-80
2023/08/15 13:10:47;;;;;;;3.83;2.63;;;;;;;;;;5076700;28;20056;-83
2023/08/15 13:13:14;;;;;;;4.13;3.00;;;;;;;;;;5077649;28;20528;-80
2023/08/15 13:15:42;;;;;;;6.45;3.50;;;;;;;;;;5079028;28;20122;-81
2023/08/15 13:18:09;;;;;;;3.47;3.13;;;;;;;;;;5078732;28;20049;-80
2023/08/15 13:20:37;;;;;;;3.70;3.30;;;;;;;;;;5078419;28;20075;-80
2023/08/15 13:23:04;;;;;;;5.85;3.30;;;;;;;;;;5076568;28;20044;-81
2023/08/15 13:25:31;;;;;;;4.70;3.15;;;;;;;;;;5077114;28;20045;-81
2023/08/15 13:27:59;;;;;;;3.80;3.40;;;;;;;;;;5074889;28;20132;-81
2023/08/15 13:30:27;;;;;;;5.32;3.78;;;;;;;;;;5077533;28;20064;-80
2023/08/15 13:32:54;;;;;;;9.10;3.63;;;;;;;;;;5074921;28;20491;-82
2023/08/15 13:35:22;;;;;;;7.32;3.30;;;;;;;;;;5078015;28;20064;-81
2023/08/15 13:37:49;;;;;;;6.75;3.22;;;;;;;;;;5076762;28;20067;-81
2023/08/15 13:40:16;;;;;;;7.57;3.08;;;;;;;;;;5076265;28;20094;-80
2023/08/15 13:42:43;;;;;;;6.95;2.88;;;;;;;;;;5076162;28;20049;-81
2023/08/15 13:45:11;;;;;;;5.93;2.80;;;;;;;;;;5075709;28;20075;-81
2023/08/15 13:47:38;;;;;;;5.03;2.88;;;;;;;;;;5082183;28;20051;-81
2023/08/15 13:50:06;;;;;;;4.55;2.63;;;;;;;;;;5080442;28;20101;-81
2023/08/15 13:52:36;;;;;;;8.52;2.70;;;;;;;;;;5079217;28;20087;-81
2023/08/15 13:55:06;;;;;;;3.88;2.70;;;;;;;;;;5080213;28;20094;-81
2023/08/15 13:57:34;;;;;;;3.97;2.80;;;;;;;;;;5078736;28;20063;-81
2023/08/15 14:00:01;;;;;;;3.90;2.88;;;;;;;;;;5078763;28;20053;-81
2023/08/15 14:02:29;;;;;;;5.53;2.83;;;;;;;;;;5078731;28;20478;-81
2023/08/15 14:04:57;;;;;;;4.82;2.97;;;;;;;;;;5078532;28;20052;-81
2023/08/15 14:07:24;;;;;;;4.70;2.58;;;;;;;;;;5074979;28;20048;-80
2023/08/15 14:09:52;;;;;;;3.50;2.70;;;;;;;;;;5075278;28;20072;-81
2023/08/15 14:12:24;;;;;;;5.10;2.70;;;;;;;;;;5073702;28;20048;-81
2023/08/15 14:14:52;;;;;;;4.63;2.63;;;;;;;;;;5074527;28;20063;-81
2023/08/15 14:17:19;;;;;;;4.05;2.58;;;;;;;;;;5074155;28;20052;-80
2023/08/15 14:19:47;;;;;;;3.70;2.60;;;;;;;;;;5073440;28;20044;-82
2023/08/15 14:22:15;;;;;;;6.78;2.83;;;;;;;;;;5073535;28;20430;-82
2023/08/15 14:24:46;;;;;;;4.90;3.00;;;;;;;;;;5074411;28;20051;-81
2023/08/15 14:27:14;;;;;;;4.25;2.75;;;;;;;;;;5074305;28;20057;-81
2023/08/15 14:29:41;;;;;;;3.35;2.83;;;;;;;;;;5072762;28;20083;-80
2023/08/15 14:32:08;;;;;;;4.93;2.63;;;;;;;;;;5072743;28;20056;-81
2023/08/15 14:34:36;;;;;;;5.90;2.80;;;;;;;;;;5072866;28;20053;-80
2023/08/15 14:37:03;;;;;;;4.03;2.95;;;;;;;;;;5074367;28;20049;-81
2023/08/15 14:39:30;;;;;;;5.82;3.03;;;;;;;;;;5072847;28;20045;-80
2023/08/15 14:41:57;;;;;;;3.10;2.90;;;;;;;;;;5072501;28;20464;-81
2023/08/15 14:44:25;;;;;;;4.07;2.30;;;;;;;;;;5073942;28;20048;-81
2023/08/15 14:46:52;;;;;;;6.85;2.47;;;;;;;;;;5073434;28;20044;-80